PMC weather

El Tepual Airport
Puerto Montt, Los Lagos Region, Chile

Public forecast

Using degrees Celsius for public forecast. Weather courtesy of forecast.io.

METAR (pilot weather report)

Retrieved 2019/04/19 08:00 UTC (31 minutes ago):

SCTE 190800Z VRB02KT 9999 OVC013 05/04 Q1018 NOSIG

TAF (pilot weather forecast)

Retrieved 2019/04/19 06:00 UTC (3 hours ago):

TAF SCTE 190459Z 1906/2006 VRB02KT 0800 BCFG SCT005 TN02/1911Z TX14/1919Z BECMG 1906/1908 19004KT 9999 NSW BKN010 TEMPO 1907/1913 VRB02KT 1000 -DZFG FEW004 OVC006 BECMG 1913/1915 18005KT SCT010 OVC016 BECMG 1916/1918 17010KT BKN020 BECMG 1918/1920 18015KT SCT030 BECMG 1922/1924 18010KT CAVOK BECMG 2001/2003 18004KT